createdAt,value
2022-12-26T00:02:24.098Z,40.04
2022-12-26T00:04:53.595Z,40.33
2022-12-26T00:07:20.757Z,39.81
2022-12-26T00:09:47.339Z,39.88
2022-12-26T00:12:14.189Z,39.99
2022-12-26T00:14:40.735Z,40.16
2022-12-26T00:17:07.558Z,40.06
2022-12-26T00:21:59.340Z,39.77
2022-12-26T00:24:26.009Z,39.80
2022-12-26T00:26:52.570Z,39.99
2022-12-26T00:29:19.355Z,40.04
2022-12-26T00:31:46.882Z,40.01
2022-12-26T00:34:13.710Z,39.57
2022-12-26T00:36:40.381Z,39.86
2022-12-26T00:39:08.294Z,39.93
2022-12-26T00:41:34.865Z,39.56
2022-12-26T00:44:01.618Z,39.55
2022-12-26T00:46:28.480Z,39.67
2022-12-26T00:48:55.354Z,39.70
2022-12-26T00:51:22.197Z,39.52
2022-12-26T00:53:49.213Z,39.83
2022-12-26T00:56:15.954Z,39.69
2022-12-26T00:58:43.156Z,39.39
2022-12-26T01:01:19.336Z,39.64
2022-12-26T01:03:47.221Z,39.53
2022-12-26T01:06:14.807Z,39.50
2022-12-26T01:08:41.751Z,39.28
2022-12-26T01:11:11.894Z,39.36
2022-12-26T01:13:38.660Z,39.22
2022-12-26T01:16:06.460Z,39.49
2022-12-26T01:18:34.473Z,39.50
2022-12-26T01:21:04.526Z,39.31
2022-12-26T01:23:31.153Z,39.31
2022-12-26T01:26:17.936Z,39.45
2022-12-26T01:28:44.263Z,39.09
2022-12-26T01:31:11.013Z,39.28
2022-12-26T01:33:37.631Z,39.47
2022-12-26T01:36:04.373Z,39.11
2022-12-26T01:38:31.001Z,38.88
2022-12-26T01:41:16.728Z,39.20
2022-12-26T01:43:48.336Z,39.04
2022-12-26T01:46:16.471Z,39.18
2022-12-26T01:48:43.092Z,38.86
2022-12-26T01:51:09.970Z,39.24
2022-12-26T01:53:41.085Z,38.75
2022-12-26T01:56:12.025Z,38.90
2022-12-26T01:59:02.639Z,38.72
2022-12-26T02:01:33.333Z,38.88
2022-12-26T02:04:23.554Z,39.00
2022-12-26T02:06:50.567Z,38.73
2022-12-26T02:09:17.486Z,38.72
2022-12-26T02:11:50.041Z,38.96
2022-12-26T02:14:38.175Z,38.87
2022-12-26T02:17:05.228Z,38.53
2022-12-26T02:19:53.592Z,38.58
2022-12-26T02:22:20.070Z,38.53
2022-12-26T02:25:08.558Z,38.36
2022-12-26T02:27:35.041Z,38.40
2022-12-26T02:30:12.994Z,38.61
2022-12-26T02:32:54.482Z,38.22
2022-12-26T02:35:42.691Z,38.55
2022-12-26T02:38:26.380Z,38.21
2022-12-26T02:41:14.645Z,38.36
2022-12-26T02:44:27.669Z,38.09
2022-12-26T02:47:23.417Z,38.23
2022-12-26T02:52:39.733Z,38.23
2022-12-26T02:55:31.189Z,38.02
2022-12-26T02:58:32.021Z,37.92
2022-12-26T03:01:45.199Z,38.10
2022-12-26T03:04:35.212Z,37.89
2022-12-26T03:07:23.901Z,38.05
2022-12-26T03:10:11.935Z,37.80
2022-12-26T03:12:57.247Z,37.88
2022-12-26T03:15:29.063Z,37.96
2022-12-26T03:17:58.690Z,37.71
2022-12-26T03:20:31.210Z,37.71
2022-12-26T03:23:01.566Z,37.86
2022-12-26T03:26:09.074Z,37.82
2022-12-26T03:28:36.020Z,37.72
2022-12-26T03:31:06.844Z,37.57
2022-12-26T03:33:56.027Z,37.66
2022-12-26T03:36:42.283Z,37.48
2022-12-26T03:39:08.858Z,37.55
2022-12-26T03:42:17.974Z,37.52
2022-12-26T03:45:19.429Z,37.76
2022-12-26T03:48:20.105Z,37.40
2022-12-26T03:51:18.498Z,37.43
2022-12-26T03:54:08.958Z,37.46
2022-12-26T03:57:04.886Z,37.30
2022-12-26T04:00:16.809Z,37.27
2022-12-26T04:03:06.118Z,37.20
2022-12-26T04:05:55.843Z,37.30
2022-12-26T04:09:02.442Z,37.37
2022-12-26T04:11:48.047Z,37.15
2022-12-26T04:14:53.752Z,37.09
2022-12-26T04:17:48.036Z,37.25
2022-12-26T04:20:31.135Z,37.02
2022-12-26T04:23:31.603Z,37.25
2022-12-26T04:26:25.664Z,37.17
2022-12-26T04:29:11.147Z,37.15
2022-12-26T04:32:12.292Z,37.26
2022-12-26T04:35:09.587Z,36.98
2022-12-26T04:37:59.295Z,36.88
2022-12-26T04:40:49.663Z,36.96
2022-12-26T04:43:47.297Z,36.75
2022-12-26T04:46:20.616Z,36.78
2022-12-26T04:49:08.602Z,36.68
2022-12-26T04:51:35.557Z,36.88
2022-12-26T04:54:02.441Z,37.04
2022-12-26T04:56:29.060Z,37.06
2022-12-26T04:58:56.061Z,36.72
2022-12-26T05:01:41.491Z,36.87
2022-12-26T05:04:32.229Z,36.86
2022-12-26T05:07:19.582Z,36.75
2022-12-26T05:09:50.037Z,36.70
2022-12-26T05:12:16.729Z,36.74
2022-12-26T05:14:43.255Z,36.80
2022-12-26T05:17:29.856Z,36.61
2022-12-26T05:20:15.289Z,36.71
2022-12-26T05:23:03.038Z,36.58
2022-12-26T05:25:54.258Z,36.81
2022-12-26T05:28:42.290Z,36.46
2022-12-26T05:31:10.834Z,36.78
2022-12-26T05:33:55.935Z,36.54
2022-12-26T05:36:25.849Z,36.43
2022-12-26T05:38:52.426Z,36.60
2022-12-26T05:41:19.418Z,36.54
2022-12-26T05:43:46.174Z,36.27
2022-12-26T05:46:14.272Z,36.69
2022-12-26T05:48:41.125Z,36.29
2022-12-26T05:51:08.374Z,36.75
2022-12-26T05:53:34.962Z,36.77
2022-12-26T05:56:12.976Z,36.42
2022-12-26T05:58:40.746Z,36.41
2022-12-26T06:01:11.304Z,36.67
2022-12-26T06:03:39.292Z,36.48
2022-12-26T06:06:07.130Z,36.48
2022-12-26T06:08:34.253Z,36.21
2022-12-26T06:11:04.201Z,36.22
2022-12-26T06:13:30.907Z,36.33
2022-12-26T06:15:58.512Z,36.18
2022-12-26T06:18:25.576Z,36.57
2022-12-26T06:20:55.681Z,36.82
2022-12-26T06:23:22.236Z,36.73
2022-12-26T06:25:56.534Z,36.65
2022-12-26T06:28:24.195Z,36.66
2022-12-26T06:30:51.925Z,36.85
2022-12-26T06:33:19.226Z,36.86
2022-12-26T06:35:46.152Z,37.02
2022-12-26T06:38:13.907Z,37.17
2022-12-26T06:40:41.667Z,37.02
2022-12-26T06:43:08.800Z,37.32
2022-12-26T06:47:56.614Z,37.16
2022-12-26T06:50:23.295Z,37.43
2022-12-26T06:52:49.777Z,37.42
2022-12-26T06:55:16.522Z,37.50
2022-12-26T06:57:43.035Z,38.00
2022-12-26T07:00:10.640Z,37.67
2022-12-26T07:02:37.355Z,37.96
2022-12-26T07:05:04.307Z,37.74
2022-12-26T07:07:30.859Z,37.81
2022-12-26T07:09:57.445Z,37.90
2022-12-26T07:12:24.022Z,38.03
2022-12-26T07:14:50.580Z,37.67
2022-12-26T07:17:18.442Z,38.07
2022-12-26T07:19:45.003Z,37.81
2022-12-26T07:22:11.497Z,37.90
2022-12-26T07:24:38.053Z,37.48
2022-12-26T07:27:04.573Z,37.87
2022-12-26T07:29:31.207Z,37.44
2022-12-26T07:31:59.001Z,37.41
2022-12-26T07:34:31.193Z,37.60
2022-12-26T07:36:59.858Z,37.67
2022-12-26T07:39:26.341Z,37.42
2022-12-26T07:41:58.535Z,37.61
2022-12-26T07:44:26.741Z,37.39
2022-12-26T07:46:56.684Z,37.60
2022-12-26T07:49:23.605Z,37.43
2022-12-26T07:51:51.203Z,37.33
2022-12-26T07:54:18.776Z,37.40
2022-12-26T07:56:45.562Z,37.49
2022-12-26T07:59:16.673Z,37.49
2022-12-26T08:01:43.974Z,37.13
2022-12-26T08:04:11.742Z,37.25
2022-12-26T08:06:38.486Z,37.65
2022-12-26T08:09:05.655Z,37.56
2022-12-26T08:11:35.089Z,37.86
2022-12-26T08:14:02.137Z,38.03
2022-12-26T08:16:28.961Z,38.10
2022-12-26T08:18:55.507Z,37.70
2022-12-26T08:21:22.138Z,37.66
2022-12-26T08:23:48.662Z,37.69
2022-12-26T08:26:22.550Z,37.50
2022-12-26T08:28:51.110Z,37.80
2022-12-26T08:31:19.389Z,37.24
2022-12-26T08:33:46.036Z,37.40
2022-12-26T08:36:13.160Z,37.41
2022-12-26T08:38:40.757Z,37.04
2022-12-26T08:41:07.820Z,37.25
2022-12-26T08:46:22.099Z,37.56
2022-12-26T08:48:50.077Z,37.91
2022-12-26T08:51:22.682Z,38.12
2022-12-26T08:53:50.753Z,38.64
2022-12-26T08:56:23.114Z,38.48
2022-12-26T08:58:49.946Z,38.51
2022-12-26T09:01:22.285Z,38.50
2022-12-26T09:03:53.540Z,38.45
2022-12-26T09:06:21.174Z,38.38
2022-12-26T09:08:47.897Z,37.93
2022-12-26T09:11:17.997Z,37.92
2022-12-26T09:13:45.681Z,37.58
2022-12-26T09:16:14.185Z,37.31
2022-12-26T09:18:42.868Z,37.41
2022-12-26T09:21:11.456Z,37.50
2022-12-26T09:23:39.254Z,37.29
2022-12-26T09:26:12.322Z,37.31
2022-12-26T09:28:39.411Z,37.23
2022-12-26T09:31:09.825Z,37.15
2022-12-26T09:33:37.747Z,36.88
2022-12-26T09:36:14.567Z,36.86
2022-12-26T09:38:45.821Z,37.29
2022-12-26T09:41:30.825Z,37.23
2022-12-26T09:44:28.305Z,37.12
2022-12-26T09:47:06.820Z,37.08
2022-12-26T09:49:36.657Z,37.27
2022-12-26T09:52:12.130Z,37.22
2022-12-26T09:54:49.312Z,37.67
2022-12-26T09:57:20.113Z,37.61
2022-12-26T09:59:55.280Z,37.63
2022-12-26T10:02:25.272Z,37.29
2022-12-26T10:04:53.518Z,37.70
2022-12-26T10:07:44.468Z,38.17
2022-12-26T10:10:32.677Z,38.98
2022-12-26T10:13:11.469Z,39.17
2022-12-26T10:15:50.523Z,39.20
2022-12-26T10:18:47.297Z,39.04
2022-12-26T10:21:14.842Z,38.75
2022-12-26T10:23:45.744Z,38.86
2022-12-26T10:26:22.303Z,39.16
2022-12-26T10:28:59.306Z,39.01
2022-12-26T10:31:30.070Z,38.53
2022-12-26T10:34:05.787Z,38.40
2022-12-26T10:36:37.562Z,38.05
2022-12-26T10:39:10.912Z,38.21
2022-12-26T10:41:43.756Z,38.08
2022-12-26T10:44:12.944Z,37.71
2022-12-26T10:47:11.924Z,38.02
2022-12-26T10:49:38.508Z,37.62
2022-12-26T10:52:05.483Z,37.47
2022-12-26T10:54:32.325Z,37.72
2022-12-26T10:57:01.268Z,37.42
2022-12-26T10:59:43.895Z,37.77
2022-12-26T11:02:24.790Z,37.37
2022-12-26T11:05:21.891Z,37.52
2022-12-26T11:08:15.114Z,37.62
2022-12-26T11:11:06.387Z,37.55
2022-12-26T11:13:41.979Z,37.30
2022-12-26T11:16:09.936Z,37.09
2022-12-26T11:18:48.129Z,37.47
2022-12-26T11:21:17.563Z,37.02
2022-12-26T11:23:49.345Z,37.40
2022-12-26T11:26:27.953Z,37.11
2022-12-26T11:29:14.281Z,37.21
2022-12-26T11:31:44.318Z,37.51
2022-12-26T11:34:17.603Z,37.40
2022-12-26T11:36:51.369Z,37.45
2022-12-26T11:39:30.502Z,37.69
2022-12-26T11:41:57.723Z,37.58
2022-12-26T11:44:29.082Z,37.99
2022-12-26T11:47:01.625Z,38.42
2022-12-26T11:49:31.271Z,38.35
2022-12-26T11:52:00.057Z,38.21
2022-12-26T11:54:36.783Z,37.61
2022-12-26T11:57:11.820Z,37.45
2022-12-26T11:59:38.917Z,37.31
2022-12-26T12:02:26.441Z,37.42
2022-12-26T12:04:57.189Z,37.21
2022-12-26T12:07:56.835Z,37.18
2022-12-26T12:10:38.376Z,37.05
2022-12-26T12:13:42.661Z,37.74
2022-12-26T12:16:33.512Z,38.08
2022-12-26T12:19:21.715Z,38.47
2022-12-26T12:22:10.096Z,38.66
2022-12-26T12:25:04.604Z,38.37
2022-12-26T12:27:36.958Z,38.38
2022-12-26T12:30:19.990Z,38.11
2022-12-26T12:33:24.636Z,38.11
2022-12-26T12:35:56.951Z,38.08
2022-12-26T12:38:31.692Z,38.41
2022-12-26T12:41:11.981Z,38.56
2022-12-26T12:44:08.910Z,38.56
2022-12-26T12:46:41.286Z,38.37
2022-12-26T12:49:23.947Z,38.42
2022-12-26T12:52:16.774Z,38.00
2022-12-26T12:55:31.490Z,37.94
2022-12-26T12:58:17.107Z,38.39
2022-12-26T13:00:59.111Z,38.51
2022-12-26T13:03:35.257Z,38.24
2022-12-26T13:06:29.466Z,38.11
2022-12-26T13:11:36.036Z,37.37
2022-12-26T13:14:10.708Z,36.89
2022-12-26T13:16:43.611Z,37.19
2022-12-26T13:19:40.579Z,37.01
2022-12-26T13:22:14.869Z,36.52
2022-12-26T13:24:46.240Z,36.55
2022-12-26T13:27:21.614Z,36.49
2022-12-26T13:29:49.535Z,36.34
2022-12-26T13:32:31.380Z,36.14
2022-12-26T13:35:00.570Z,35.86
2022-12-26T13:37:39.280Z,35.85
2022-12-26T13:40:20.246Z,36.38
2022-12-26T13:43:34.957Z,37.17
2022-12-26T13:46:01.852Z,37.13
2022-12-26T13:48:30.333Z,36.96
2022-12-26T13:51:00.355Z,37.20
2022-12-26T13:53:38.986Z,37.02
2022-12-26T13:56:39.649Z,36.76
2022-12-26T13:59:11.708Z,37.10
2022-12-26T14:02:21.187Z,37.06
2022-12-26T14:05:11.982Z,37.36
2022-12-26T14:07:45.299Z,37.43
2022-12-26T14:10:32.856Z,37.39
2022-12-26T14:13:22.846Z,37.32
2022-12-26T14:15:58.021Z,37.59
2022-12-26T14:18:48.934Z,37.57
2022-12-26T14:21:43.741Z,37.28
2022-12-26T14:24:22.434Z,37.53
2022-12-26T14:27:21.255Z,38.25
2022-12-26T14:30:06.962Z,38.60
2022-12-26T14:33:18.105Z,38.67
2022-12-26T14:35:44.645Z,38.49
2022-12-26T14:38:20.198Z,39.11
2022-12-26T14:41:04.677Z,39.05
2022-12-26T14:43:37.645Z,38.76
2022-12-26T14:46:27.107Z,38.80
2022-12-26T14:48:57.375Z,38.68
2022-12-26T14:51:30.777Z,38.23
2022-12-26T14:54:33.786Z,37.82
2022-12-26T14:57:01.030Z,37.73
2022-12-26T14:59:27.908Z,37.42
2022-12-26T15:04:20.094Z,37.49
2022-12-26T15:07:20.918Z,37.58
2022-12-26T15:10:02.987Z,37.57
2022-12-26T15:12:58.355Z,37.70
2022-12-26T15:15:41.916Z,37.96
2022-12-26T15:18:27.025Z,37.88
2022-12-26T15:20:59.365Z,38.07
2022-12-26T15:24:01.524Z,38.27
2022-12-26T15:26:40.605Z,38.28
2022-12-26T15:29:38.278Z,38.37
2022-12-26T15:32:07.521Z,38.50
2022-12-26T15:35:10.156Z,38.46
2022-12-26T15:37:59.587Z,38.45
2022-12-26T15:40:35.361Z,38.38
2022-12-26T15:43:21.971Z,38.46
2022-12-26T15:46:14.278Z,38.58
2022-12-26T15:49:14.979Z,38.63
2022-12-26T15:51:57.491Z,38.86
2022-12-26T15:54:36.121Z,38.96
2022-12-26T15:57:20.867Z,38.68
2022-12-26T15:59:47.441Z,38.55
2022-12-26T16:02:32.966Z,38.40
2022-12-26T16:05:19.813Z,38.17
2022-12-26T16:08:08.822Z,38.50
2022-12-26T16:10:36.482Z,38.33
2022-12-26T16:13:11.744Z,38.33
2022-12-26T16:15:52.042Z,38.28
2022-12-26T16:18:20.143Z,38.15
2022-12-26T16:21:06.922Z,38.06
2022-12-26T16:23:40.164Z,38.10
2022-12-26T16:26:07.638Z,38.41
2022-12-26T16:28:38.224Z,38.21
2022-12-26T16:31:05.988Z,38.00
2022-12-26T16:33:44.068Z,37.65
2022-12-26T16:36:23.736Z,37.55
2022-12-26T16:38:52.433Z,37.27
2022-12-26T16:41:26.311Z,37.13
2022-12-26T16:43:54.750Z,36.98
2022-12-26T16:46:28.810Z,36.76
2022-12-26T16:48:58.756Z,36.85
2022-12-26T16:51:31.097Z,36.54
2022-12-26T16:54:16.578Z,36.78
2022-12-26T16:56:47.324Z,36.64
2022-12-26T16:59:21.172Z,36.77
2022-12-26T17:01:57.099Z,36.56
2022-12-26T17:04:26.383Z,36.39
2022-12-26T17:07:08.943Z,36.38
2022-12-26T17:09:44.185Z,36.37
2022-12-26T17:12:27.770Z,36.56
2022-12-26T17:14:56.971Z,36.53
2022-12-26T17:17:24.833Z,36.30
2022-12-26T17:19:56.683Z,36.27
2022-12-26T17:22:50.651Z,36.55
2022-12-26T17:25:17.188Z,36.33
2022-12-26T17:27:45.177Z,36.40
2022-12-26T17:30:32.232Z,36.52
2022-12-26T17:33:05.106Z,36.50
2022-12-26T17:36:13.542Z,36.56
2022-12-26T17:38:27.144Z,36.66
2022-12-26T17:40:56.528Z,36.48
2022-12-26T17:43:29.289Z,36.47
2022-12-26T17:45:56.472Z,36.64
2022-12-26T17:48:23.623Z,36.60
2022-12-26T17:50:55.965Z,36.59
2022-12-26T17:53:22.539Z,36.50
2022-12-26T17:55:50.906Z,36.76
2022-12-26T17:58:17.742Z,36.79
2022-12-26T18:00:45.207Z,37.14
2022-12-26T18:03:12.393Z,37.25
2022-12-26T18:05:39.745Z,37.33
2022-12-26T18:08:06.964Z,37.21
2022-12-26T18:10:36.562Z,37.08
2022-12-26T18:13:03.949Z,37.12
2022-12-26T18:15:34.080Z,37.12
2022-12-26T18:18:00.809Z,36.96
2022-12-26T18:20:29.560Z,36.99
2022-12-26T18:22:59.742Z,37.01
2022-12-26T18:25:30.400Z,36.87
2022-12-26T18:27:57.059Z,36.73
2022-12-26T18:30:25.636Z,36.69
2022-12-26T18:32:53.497Z,36.81
2022-12-26T18:35:22.886Z,36.83
2022-12-26T18:37:52.093Z,36.64
2022-12-26T18:40:31.247Z,36.77
2022-12-26T18:42:58.007Z,36.69
2022-12-26T18:45:24.960Z,36.65
2022-12-26T18:47:51.677Z,36.75
2022-12-26T18:50:18.666Z,36.85
2022-12-26T18:52:49.985Z,36.56
2022-12-26T18:55:19.982Z,36.80
2022-12-26T18:57:46.823Z,36.70
2022-12-26T19:00:15.178Z,36.33
2022-12-26T19:02:42.221Z,36.50
2022-12-26T19:05:36.332Z,36.45
2022-12-26T19:08:03.293Z,36.63
2022-12-26T19:10:32.605Z,36.46
2022-12-26T19:13:05.783Z,36.45
2022-12-26T19:15:35.954Z,36.45
2022-12-26T19:18:04.039Z,36.31
2022-12-26T19:20:30.855Z,36.22
2022-12-26T19:22:59.783Z,36.35
2022-12-26T19:25:30.120Z,36.18
2022-12-26T19:27:57.826Z,36.42
2022-12-26T19:30:24.707Z,36.64
2022-12-26T19:32:53.712Z,36.63
2022-12-26T19:35:25.454Z,36.80
2022-12-26T19:38:05.122Z,36.93
2022-12-26T19:40:37.659Z,37.26
2022-12-26T19:43:07.294Z,37.37
2022-12-26T19:45:36.812Z,37.57
2022-12-26T19:48:03.695Z,38.08
2022-12-26T19:50:40.755Z,38.19
2022-12-26T19:53:07.409Z,38.61
2022-12-26T19:55:38.733Z,38.86
2022-12-26T19:58:05.762Z,38.90
2022-12-26T20:00:35.605Z,39.34
2022-12-26T20:03:08.643Z,39.53
2022-12-26T20:05:40.062Z,39.56
2022-12-26T20:08:10.048Z,39.74
2022-12-26T20:10:44.591Z,39.69
2022-12-26T20:13:14.767Z,39.62
2022-12-26T20:15:51.263Z,39.52
2022-12-26T20:18:29.614Z,39.56
2022-12-26T20:20:56.540Z,39.66
2022-12-26T20:23:25.902Z,39.75
2022-12-26T20:26:29.031Z,39.93
2022-12-26T20:29:06.894Z,39.80
2022-12-26T20:31:36.387Z,39.89
2022-12-26T20:34:09.439Z,39.88
2022-12-26T20:36:52.546Z,39.82
2022-12-26T20:39:20.374Z,39.71
2022-12-26T20:41:49.601Z,39.73
2022-12-26T20:44:17.946Z,39.99
2022-12-26T20:46:48.444Z,39.88
2022-12-26T20:49:23.963Z,39.93
2022-12-26T20:51:55.261Z,40.22
2022-12-26T20:54:42.812Z,40.09
2022-12-26T20:57:09.643Z,40.26
2022-12-26T20:59:39.334Z,40.33
2022-12-26T21:02:06.879Z,40.54
2022-12-26T21:04:36.647Z,40.65
2022-12-26T21:07:03.418Z,40.67
2022-12-26T21:09:30.245Z,40.64
2022-12-26T21:11:56.851Z,40.51
2022-12-26T21:14:23.989Z,40.61
2022-12-26T21:16:54.606Z,40.74
2022-12-26T21:19:23.194Z,40.66
2022-12-26T21:21:54.450Z,40.71
2022-12-26T21:24:29.705Z,40.81
2022-12-26T21:26:56.752Z,40.77
2022-12-26T21:29:29.004Z,40.71
2022-12-26T21:31:56.486Z,41.06
2022-12-26T21:37:11.006Z,40.75
2022-12-26T21:39:39.260Z,40.78
2022-12-26T21:42:07.857Z,40.75
2022-12-26T21:44:35.924Z,40.85
2022-12-26T21:47:04.605Z,40.76
2022-12-26T21:49:31.678Z,40.87
2022-12-26T21:51:58.312Z,41.20
2022-12-26T21:54:48.714Z,40.94
2022-12-26T21:57:16.670Z,41.17
2022-12-26T21:59:56.681Z,41.28
2022-12-26T22:02:53.597Z,41.28
2022-12-26T22:05:23.906Z,41.32
2022-12-26T22:07:56.071Z,41.65
2022-12-26T22:10:42.100Z,41.61
2022-12-26T22:13:09.286Z,41.80
2022-12-26T22:15:59.732Z,41.60
2022-12-26T22:18:26.413Z,41.56
2022-12-26T22:20:53.102Z,41.45
2022-12-26T22:23:19.763Z,41.69
2022-12-26T22:25:55.781Z,41.62
2022-12-26T22:28:23.752Z,41.43
2022-12-26T22:30:51.270Z,41.46
2022-12-26T22:33:19.265Z,41.29
2022-12-26T22:35:46.158Z,41.49
2022-12-26T22:38:13.049Z,41.37
2022-12-26T22:40:40.448Z,41.42
2022-12-26T22:43:06.980Z,41.26
2022-12-26T22:45:33.775Z,41.18
2022-12-26T22:48:00.424Z,40.92
2022-12-26T22:50:27.000Z,41.13
2022-12-26T22:52:53.783Z,41.12
2022-12-26T22:55:23.240Z,40.92
2022-12-26T22:57:52.792Z,40.91
2022-12-26T23:00:22.425Z,40.73
2022-12-26T23:02:49.439Z,40.70
2022-12-26T23:05:16.341Z,40.45
2022-12-26T23:07:44.355Z,40.69
2022-12-26T23:10:18.204Z,40.65
2022-12-26T23:12:45.253Z,40.59
2022-12-26T23:15:18.388Z,40.31
2022-12-26T23:18:10.245Z,40.23
2022-12-26T23:21:10.793Z,40.50
2022-12-26T23:23:40.152Z,40.33
2022-12-26T23:26:06.675Z,40.26
2022-12-26T23:28:52.018Z,40.38
2022-12-26T23:31:18.610Z,40.29
2022-12-26T23:33:45.165Z,40.27
2022-12-26T23:36:12.069Z,40.28
2022-12-26T23:38:38.674Z,40.15
2022-12-26T23:41:05.325Z,40.13
2022-12-26T23:43:33.564Z,39.85
2022-12-26T23:46:00.679Z,39.93
2022-12-26T23:48:27.482Z,39.95
2022-12-26T23:51:07.819Z,39.99
2022-12-26T23:53:35.155Z,40.02
2022-12-26T23:56:01.957Z,39.76
2022-12-26T23:58:28.964Z,39.78
